Kapalua Airport Lahaina US
ICAO: PHJH
IATA:
Category: Medium
Scheduled Services:

Elevation: 256 ft
TransAlt. 0 ft.

Airport Communications:
AWOS:118.525
MAUI RDO:123.6
CTAF/UNICOM:122.7

PHJH Zoom In..

Runways:

(A) RW 02 length 3000 ft width 100 ft
---- / hdg 17

(B) RW 20 length 3000 ft width 100 ft
---- / hdg 197

Location; PHJH
Day. 27 / Time. 03.50 Zulu
* Altimeter: 29.97
* Temperature: 22° c. 71.6°f.
* Wind from: 070° Speed 15 kn.
Dewpoint: 20° c.
Visibility: 15 Statute Miles.
Clouds: Few 1500 ft.
Clouds: Few 3000 ft.
Clouds: Scattered 5000 ft.

PHJH 270350Z 07015KT 15SM FEW015 FEW030 SCT050 22/20 A2997 RMK LAST


Wind From 070°
Speed 15 kn.

  YouTube Music Video
 
jpsmedia.com for Web Design  worldairports.se 2018   terms of use